createdAt,value
2019-03-22T00:01:14.230Z,2.80
2019-03-22T00:03:42.826Z,3.00
2019-03-22T00:06:10.454Z,3.00
2019-03-22T00:08:38.099Z,3.00
2019-03-22T00:11:05.730Z,2.90
2019-03-22T00:13:33.375Z,2.70
2019-03-22T00:16:01.035Z,2.70
2019-03-22T00:18:28.678Z,2.60
2019-03-22T00:20:59.082Z,2.40
2019-03-22T00:23:26.723Z,2.40
2019-03-22T00:25:54.345Z,2.40
2019-03-22T00:28:22.022Z,2.50
2019-03-22T00:30:49.652Z,2.60
2019-03-22T00:33:20.393Z,2.60
2019-03-22T00:35:48.023Z,2.60
2019-03-22T00:38:15.666Z,2.70
2019-03-22T00:40:43.299Z,2.70
2019-03-22T00:43:16.684Z,2.50
2019-03-22T00:45:44.314Z,2.40
2019-03-22T00:48:11.953Z,2.40
2019-03-22T00:50:39.587Z,2.40
2019-03-22T00:53:18.186Z,2.40
2019-03-22T00:55:45.811Z,2.50
2019-03-22T00:58:13.461Z,2.40
2019-03-22T01:00:41.086Z,2.30
2019-03-22T01:03:08.714Z,2.40
2019-03-22T01:05:36.364Z,2.20
2019-03-22T01:08:03.994Z,2.30
2019-03-22T01:10:31.643Z,2.10
2019-03-22T01:12:59.270Z,1.90
2019-03-22T01:15:26.917Z,1.80
2019-03-22T01:17:54.563Z,1.60
2019-03-22T01:20:22.255Z,1.40
2019-03-22T01:22:51.861Z,1.40
2019-03-22T01:25:19.487Z,1.60
2019-03-22T01:27:47.122Z,1.70
2019-03-22T01:30:15.743Z,1.80
2019-03-22T01:32:46.056Z,1.90
2019-03-22T01:35:13.762Z,1.90
2019-03-22T01:37:41.394Z,2.00
2019-03-22T01:40:10.577Z,2.00
2019-03-22T01:42:44.509Z,1.90
2019-03-22T01:45:13.082Z,1.90
2019-03-22T01:47:40.705Z,1.80
2019-03-22T01:50:17.729Z,1.80
2019-03-22T01:53:03.864Z,1.90
2019-03-22T01:55:31.512Z,1.70
2019-03-22T01:57:59.142Z,1.70
2019-03-22T02:00:26.842Z,1.70
2019-03-22T02:02:56.472Z,1.80
2019-03-22T02:05:24.123Z,1.80
2019-03-22T02:07:51.763Z,1.60
2019-03-22T02:10:19.451Z,1.70
2019-03-22T02:12:47.112Z,1.70
2019-03-22T02:15:15.202Z,1.70
2019-03-22T02:17:42.993Z,1.70
2019-03-22T02:20:11.714Z,1.60
2019-03-22T02:22:54.510Z,1.50
2019-03-22T02:25:22.166Z,1.40
2019-03-22T02:27:49.792Z,1.40
2019-03-22T02:30:17.604Z,1.40
2019-03-22T02:32:46.187Z,1.40
2019-03-22T02:35:27.381Z,1.30
2019-03-22T02:37:43.244Z,1.30
2019-03-22T02:40:11.535Z,1.40
2019-03-22T02:42:40.105Z,1.40
2019-03-22T02:45:09.606Z,1.40
2019-03-22T02:47:37.266Z,1.30
2019-03-22T02:50:18.183Z,1.30
2019-03-22T02:52:35.808Z,1.30
2019-03-22T02:55:04.422Z,1.40
2019-03-22T02:57:32.118Z,1.40
2019-03-22T02:59:59.752Z,1.40
2019-03-22T03:02:32.066Z,1.40
2019-03-22T03:04:59.695Z,1.20
2019-03-22T03:07:27.348Z,1.10
2019-03-22T03:09:54.984Z,1.10
2019-03-22T03:12:22.617Z,1.20
2019-03-22T03:14:50.315Z,1.20
2019-03-22T03:17:17.961Z,1.20
2019-03-22T03:19:45.587Z,1.20
2019-03-22T03:22:19.091Z,1.10
2019-03-22T03:24:46.735Z,1.10
2019-03-22T03:27:14.378Z,1.00
2019-03-22T03:29:41.995Z,1.10
2019-03-22T03:32:09.640Z,1.10
2019-03-22T03:34:37.276Z,1.00
2019-03-22T03:37:04.915Z,1.10
2019-03-22T03:39:32.538Z,0.90
2019-03-22T03:42:00.251Z,0.90
2019-03-22T03:44:27.879Z,0.80
2019-03-22T03:46:55.526Z,0.70
2019-03-22T03:49:23.154Z,0.80
2019-03-22T03:51:50.802Z,0.70
2019-03-22T03:54:18.416Z,0.80
2019-03-22T03:56:46.064Z,0.80
2019-03-22T03:59:13.695Z,0.80
2019-03-22T04:01:41.345Z,0.80
2019-03-22T04:04:09.938Z,0.80
2019-03-22T04:06:37.596Z,0.90
2019-03-22T04:09:06.190Z,0.90
2019-03-22T04:11:33.847Z,1.00
2019-03-22T04:14:10.296Z,0.90
2019-03-22T04:16:37.939Z,0.90
2019-03-22T04:19:05.572Z,0.80
2019-03-22T04:21:33.198Z,0.90
2019-03-22T04:24:07.811Z,0.80
2019-03-22T04:26:35.448Z,0.80
2019-03-22T04:29:07.811Z,0.80
2019-03-22T04:31:32.520Z,0.80
2019-03-22T04:34:00.232Z,0.80
2019-03-22T04:36:27.866Z,0.70
2019-03-22T04:38:55.528Z,0.70
2019-03-22T04:41:23.158Z,0.60
2019-03-22T04:43:56.803Z,0.60
2019-03-22T04:46:24.798Z,0.70
2019-03-22T04:48:53.119Z,0.50
2019-03-22T04:51:20.914Z,0.60
2019-03-22T04:53:55.861Z,0.60
2019-03-22T04:56:25.070Z,0.60
2019-03-22T04:58:53.286Z,0.60
2019-03-22T05:01:21.987Z,0.60
2019-03-22T05:03:55.474Z,0.50
2019-03-22T05:06:23.118Z,0.50
2019-03-22T05:08:51.631Z,0.60
2019-03-22T05:13:53.240Z,0.40
2019-03-22T05:16:21.345Z,0.40
2019-03-22T05:18:50.861Z,0.40
2019-03-22T05:21:19.755Z,0.40
2019-03-22T05:23:47.871Z,0.40
2019-03-22T05:26:16.664Z,0.50
2019-03-22T05:28:44.782Z,0.60
2019-03-22T05:31:13.946Z,0.50
2019-03-22T05:33:41.591Z,0.60
2019-03-22T05:36:09.222Z,0.60
2019-03-22T05:38:36.869Z,0.50
2019-03-22T05:41:04.491Z,0.50
2019-03-22T05:43:32.133Z,0.50
2019-03-22T05:45:59.768Z,0.60
2019-03-22T05:48:27.410Z,0.60
2019-03-22T05:50:55.043Z,0.50
2019-03-22T05:53:22.678Z,0.60
2019-03-22T05:55:50.315Z,0.60
2019-03-22T05:58:18.242Z,0.60
2019-03-22T06:00:45.866Z,0.60
2019-03-22T06:03:13.495Z,0.60
2019-03-22T06:05:41.142Z,0.70
2019-03-22T06:08:08.770Z,0.80
2019-03-22T06:10:36.402Z,1.00
2019-03-22T06:15:31.454Z,1.30
2019-03-22T06:17:59.082Z,1.20
2019-03-22T06:20:26.740Z,1.20
2019-03-22T06:22:54.365Z,1.20
2019-03-22T06:25:21.994Z,1.40
2019-03-22T06:27:49.622Z,1.60
2019-03-22T06:30:17.270Z,1.60
2019-03-22T06:32:44.914Z,1.80
2019-03-22T06:35:12.559Z,2.00
2019-03-22T06:37:40.191Z,2.00
2019-03-22T06:40:07.915Z,2.00
2019-03-22T06:42:37.516Z,2.10
2019-03-22T06:45:05.930Z,2.20
2019-03-22T06:47:33.569Z,2.20
2019-03-22T06:50:01.217Z,2.40
2019-03-22T06:52:28.892Z,2.40
2019-03-22T06:54:56.542Z,2.50
2019-03-22T06:57:24.162Z,2.50
2019-03-22T06:59:51.792Z,2.60
2019-03-22T07:02:19.426Z,2.70
2019-03-22T07:04:47.082Z,2.90
2019-03-22T07:07:14.739Z,3.10
2019-03-22T07:09:42.350Z,3.20
2019-03-22T07:12:10.007Z,3.20
2019-03-22T07:14:37.624Z,3.50
2019-03-22T07:19:32.628Z,4.10
2019-03-22T07:22:00.274Z,4.40
2019-03-22T07:24:27.906Z,4.50
2019-03-22T07:26:55.546Z,4.70
2019-03-22T07:29:23.173Z,5.10
2019-03-22T07:31:50.819Z,5.00
2019-03-22T07:34:18.447Z,5.20
2019-03-22T07:36:47.143Z,5.50
2019-03-22T07:39:14.899Z,5.70
2019-03-22T07:41:42.534Z,5.90
2019-03-22T07:44:10.157Z,6.00
2019-03-22T07:46:37.804Z,6.00
2019-03-22T07:49:05.435Z,6.10
2019-03-22T07:51:33.075Z,6.00
2019-03-22T07:54:03.487Z,6.20
2019-03-22T07:56:30.092Z,6.50
2019-03-22T07:58:57.718Z,6.50
2019-03-22T08:03:52.795Z,7.20
2019-03-22T08:06:20.439Z,7.50
2019-03-22T08:08:48.069Z,7.80
2019-03-22T08:11:15.731Z,7.60
2019-03-22T08:13:43.417Z,7.70
2019-03-22T08:18:38.487Z,8.00
2019-03-22T08:21:06.135Z,8.30
2019-03-22T08:23:33.763Z,8.30
2019-03-22T08:26:01.391Z,8.70
2019-03-22T08:28:29.035Z,8.60
2019-03-22T08:30:56.742Z,9.00
2019-03-22T08:33:24.409Z,9.10
2019-03-22T08:35:52.086Z,9.00
2019-03-22T08:38:19.802Z,9.00
2019-03-22T08:40:48.206Z,9.00
2019-03-22T08:43:15.847Z,9.30
2019-03-22T08:45:43.521Z,9.60
2019-03-22T08:48:11.199Z,9.50
2019-03-22T08:50:38.903Z,9.70
2019-03-22T08:53:06.587Z,10.20
2019-03-22T08:55:34.732Z,10.60
2019-03-22T08:58:02.396Z,10.90
2019-03-22T09:00:39.352Z,10.90
2019-03-22T09:02:59.450Z,11.20
2019-03-22T09:05:27.090Z,11.20
2019-03-22T09:10:22.299Z,11.80
2019-03-22T09:12:50.930Z,12.10
2019-03-22T09:15:18.572Z,12.30
2019-03-22T09:17:46.210Z,12.50
2019-03-22T09:20:14.214Z,12.60
2019-03-22T09:22:41.900Z,12.60
2019-03-22T09:25:09.639Z,13.00
2019-03-22T09:27:37.317Z,13.20
2019-03-22T09:32:32.438Z,13.60
2019-03-22T09:35:00.246Z,13.80
2019-03-22T09:37:28.121Z,14.00
2019-03-22T09:39:55.764Z,14.10
2019-03-22T09:42:23.480Z,14.00
2019-03-22T09:44:51.178Z,13.80
2019-03-22T09:47:18.843Z,14.20
2019-03-22T09:49:46.581Z,14.50
2019-03-22T09:52:14.278Z,14.70
2019-03-22T09:54:41.907Z,14.70
2019-03-22T09:57:09.588Z,14.00
2019-03-22T09:59:37.289Z,14.00
2019-03-22T10:02:04.978Z,14.40
2019-03-22T10:07:00.114Z,15.50
2019-03-22T10:11:55.162Z,16.20
2019-03-22T10:14:22.977Z,15.90
2019-03-22T10:16:50.696Z,15.60
2019-03-22T10:19:18.439Z,15.70
2019-03-22T10:21:46.137Z,15.90
2019-03-22T10:26:41.240Z,17.30
2019-03-22T10:29:08.969Z,17.40
2019-03-22T10:31:37.803Z,17.00
2019-03-22T10:34:05.740Z,16.70
2019-03-22T10:36:33.408Z,17.10
2019-03-22T10:43:55.855Z,18.50
2019-03-22T10:46:23.625Z,18.40
2019-03-22T10:48:51.295Z,18.50
2019-03-22T10:51:21.451Z,18.50
2019-03-22T10:53:48.490Z,18.80
2019-03-22T10:58:43.681Z,18.20
2019-03-22T11:01:11.323Z,17.70
2019-03-22T11:03:39.032Z,18.40
2019-03-22T11:06:06.694Z,19.40
2019-03-22T11:08:34.339Z,19.90
2019-03-22T11:11:01.977Z,20.80
2019-03-22T11:13:30.542Z,20.70
2019-03-22T11:15:58.249Z,20.10
2019-03-22T11:18:25.931Z,20.70
2019-03-22T11:20:53.569Z,20.70
2019-03-22T11:23:21.198Z,20.10
2019-03-22T11:25:48.924Z,20.30
2019-03-22T11:28:16.561Z,20.20
2019-03-22T11:30:44.198Z,21.00
2019-03-22T11:33:11.842Z,21.20
2019-03-22T11:35:39.490Z,21.90
2019-03-22T11:40:34.545Z,22.40
2019-03-22T11:43:08.585Z,22.80
2019-03-22T11:45:31.627Z,23.00
2019-03-22T11:48:00.545Z,22.70
2019-03-22T11:50:29.105Z,22.70
2019-03-22T11:52:56.760Z,23.30
2019-03-22T11:55:24.413Z,23.50
2019-03-22T11:57:52.046Z,23.50
2019-03-22T12:00:24.363Z,23.60
2019-03-22T12:05:21.184Z,24.20
2019-03-22T12:10:17.423Z,25.10
2019-03-22T12:12:45.129Z,25.50
2019-03-22T12:15:14.047Z,25.60
2019-03-22T12:17:41.684Z,24.30
2019-03-22T12:20:10.992Z,25.20
2019-03-22T12:22:53.970Z,25.20
2019-03-22T12:25:22.694Z,25.40
2019-03-22T12:27:50.327Z,26.40
2019-03-22T12:30:18.154Z,26.60
2019-03-22T12:32:45.976Z,25.80
2019-03-22T12:35:15.163Z,26.40
2019-03-22T12:37:42.806Z,26.10
2019-03-22T12:40:22.499Z,26.80
2019-03-22T12:42:52.789Z,26.60
2019-03-22T12:45:21.806Z,26.00
2019-03-22T12:47:49.440Z,26.40
2019-03-22T12:50:17.357Z,26.30
2019-03-22T12:52:44.995Z,26.70
2019-03-22T12:55:12.712Z,26.00
2019-03-22T12:57:40.355Z,25.40
2019-03-22T13:00:09.559Z,25.80
2019-03-22T13:02:42.293Z,26.40
2019-03-22T13:05:06.838Z,26.80
2019-03-22T13:07:34.484Z,27.60
2019-03-22T13:10:02.127Z,28.20
2019-03-22T13:12:29.783Z,29.30
2019-03-22T13:14:57.499Z,29.00
2019-03-22T13:17:25.142Z,28.50
2019-03-22T13:19:52.774Z,29.00
2019-03-22T13:22:20.422Z,29.00
2019-03-22T13:24:48.083Z,28.10
2019-03-22T13:27:15.746Z,28.80
2019-03-22T13:29:43.416Z,28.90
2019-03-22T13:32:11.111Z,29.00
2019-03-22T13:34:38.894Z,28.70
2019-03-22T13:37:06.547Z,28.60
2019-03-22T13:39:34.186Z,27.10
2019-03-22T13:42:04.894Z,27.60
2019-03-22T13:44:32.533Z,28.20
2019-03-22T13:47:00.192Z,28.40
2019-03-22T13:49:27.826Z,29.00
2019-03-22T13:51:55.471Z,29.30
2019-03-22T13:54:23.107Z,29.80
2019-03-22T13:56:50.766Z,30.10
2019-03-22T13:59:18.398Z,30.00
2019-03-22T14:01:46.055Z,29.90
2019-03-22T14:04:19.778Z,29.70
2019-03-22T14:06:47.438Z,30.40
2019-03-22T14:11:42.454Z,30.10
2019-03-22T14:14:11.050Z,29.70
2019-03-22T14:16:38.703Z,29.50
2019-03-22T14:19:06.334Z,29.60
2019-03-22T14:21:33.975Z,30.20
2019-03-22T14:24:01.615Z,29.20
2019-03-22T14:26:29.263Z,29.90
2019-03-22T14:28:56.903Z,30.70
2019-03-22T14:31:24.536Z,31.00
2019-03-22T14:33:52.182Z,31.10
2019-03-22T14:36:19.839Z,31.00
2019-03-22T14:38:47.482Z,30.40
2019-03-22T14:41:15.114Z,29.80
2019-03-22T14:43:58.850Z,29.80
2019-03-22T14:46:26.491Z,29.50
2019-03-22T14:48:54.138Z,29.70
2019-03-22T14:51:21.775Z,30.60
2019-03-22T14:53:54.406Z,30.70
2019-03-22T14:56:22.050Z,28.90
2019-03-22T14:58:49.700Z,29.00
2019-03-22T15:03:47.727Z,27.60
2019-03-22T15:06:15.354Z,28.00
2019-03-22T15:08:42.999Z,27.80
2019-03-22T15:13:47.848Z,27.90
2019-03-22T15:16:20.043Z,28.70
2019-03-22T15:21:18.348Z,28.60
2019-03-22T15:24:03.412Z,29.20
2019-03-22T15:26:31.184Z,29.10
2019-03-22T15:29:16.789Z,29.00
2019-03-22T15:32:02.517Z,29.70
2019-03-22T15:34:46.797Z,29.10
2019-03-22T15:37:22.065Z,29.10
2019-03-22T15:39:57.171Z,29.20
2019-03-22T15:42:24.847Z,28.20
2019-03-22T15:44:52.536Z,27.80
2019-03-22T15:47:20.211Z,28.40
2019-03-22T15:49:47.858Z,28.90
2019-03-22T15:52:21.724Z,28.40
2019-03-22T15:54:49.391Z,29.00
2019-03-22T15:57:17.042Z,27.30
2019-03-22T15:59:44.695Z,27.50
2019-03-22T16:02:13.455Z,26.70
2019-03-22T16:04:41.116Z,26.20
2019-03-22T16:07:08.747Z,25.80
2019-03-22T16:09:36.400Z,26.60
2019-03-22T16:12:04.116Z,26.90
2019-03-22T16:19:26.498Z,25.90
2019-03-22T16:24:25.298Z,25.40
2019-03-22T16:26:52.926Z,25.60
2019-03-22T16:29:20.578Z,25.00
2019-03-22T16:31:48.218Z,24.80
2019-03-22T16:34:15.878Z,24.00
2019-03-22T16:36:43.504Z,23.30
2019-03-22T16:39:11.155Z,22.30
2019-03-22T16:41:38.806Z,21.60
2019-03-22T16:44:09.486Z,20.70
2019-03-22T16:46:37.123Z,20.40
2019-03-22T16:56:37.535Z,19.50
2019-03-22T17:01:32.593Z,19.10
2019-03-22T17:04:04.367Z,18.90
2019-03-22T17:06:29.758Z,18.70
2019-03-22T17:08:57.415Z,18.70
2019-03-22T17:11:25.051Z,18.60
2019-03-22T17:13:52.698Z,18.60
2019-03-22T17:16:20.353Z,18.50
2019-03-22T17:18:48.824Z,18.30
2019-03-22T17:21:16.466Z,18.20
2019-03-22T17:23:47.431Z,18.00
2019-03-22T17:26:15.081Z,17.70
2019-03-22T17:33:42.799Z,17.00
2019-03-22T17:38:37.835Z,16.50
2019-03-22T17:41:05.481Z,15.80
2019-03-22T17:43:33.129Z,15.50
2019-03-22T17:46:00.790Z,15.60
2019-03-22T17:48:28.442Z,15.40
2019-03-22T17:50:56.175Z,15.20
2019-03-22T17:53:24.780Z,15.00
2019-03-22T17:55:52.427Z,14.90
2019-03-22T17:58:20.062Z,14.50
2019-03-22T18:00:47.710Z,14.10
2019-03-22T18:03:15.350Z,14.00
2019-03-22T18:05:43.014Z,13.90
2019-03-22T18:08:10.656Z,13.60
2019-03-22T18:10:38.314Z,13.70
2019-03-22T18:13:06.907Z,13.70
2019-03-22T18:15:34.552Z,13.40
2019-03-22T18:18:02.192Z,13.20
2019-03-22T18:20:29.847Z,13.20
2019-03-22T18:22:57.478Z,12.70
2019-03-22T18:25:25.123Z,12.20
2019-03-22T18:27:52.763Z,12.00
2019-03-22T18:30:20.407Z,12.20
2019-03-22T18:32:48.055Z,11.90
2019-03-22T18:35:15.689Z,11.90
2019-03-22T18:37:43.340Z,12.00
2019-03-22T18:40:11.849Z,12.10
2019-03-22T18:42:39.499Z,12.10
2019-03-22T18:45:08.399Z,11.70
2019-03-22T18:47:36.039Z,11.80
2019-03-22T18:50:06.025Z,11.70
2019-03-22T18:52:33.884Z,11.60
2019-03-22T18:55:01.518Z,11.30
2019-03-22T18:57:29.158Z,11.40
2019-03-22T18:59:56.790Z,11.20
2019-03-22T19:02:24.439Z,11.10
2019-03-22T19:04:52.069Z,11.10
2019-03-22T19:07:19.717Z,11.10
2019-03-22T19:09:47.356Z,11.20
2019-03-22T19:12:15.021Z,11.20
2019-03-22T19:14:42.666Z,10.90
2019-03-22T19:17:10.339Z,11.10
2019-03-22T19:19:37.978Z,11.20
2019-03-22T19:22:05.636Z,11.10
2019-03-22T19:24:33.284Z,10.90
2019-03-22T19:27:00.943Z,10.80
2019-03-22T19:29:28.579Z,10.70
2019-03-22T19:31:56.231Z,10.60
2019-03-22T19:34:23.875Z,10.60
2019-03-22T19:36:51.633Z,10.60
2019-03-22T19:39:19.339Z,10.40
2019-03-22T19:41:47.039Z,10.00
2019-03-22T19:44:14.690Z,9.80
2019-03-22T19:46:42.322Z,9.80
2019-03-22T19:49:09.999Z,9.60
2019-03-22T19:51:37.641Z,9.70
2019-03-22T19:54:05.277Z,9.80
2019-03-22T19:56:32.910Z,9.60
2019-03-22T19:59:00.551Z,9.80
2019-03-22T20:01:28.182Z,9.80
2019-03-22T20:04:01.601Z,9.80
2019-03-22T20:06:29.234Z,9.70
2019-03-22T20:08:56.878Z,9.50
2019-03-22T20:11:24.534Z,9.50
2019-03-22T20:13:52.253Z,9.60
2019-03-22T20:16:19.886Z,9.50
2019-03-22T20:18:47.541Z,9.40
2019-03-22T20:21:15.166Z,9.10
2019-03-22T20:23:53.101Z,9.20
2019-03-22T20:26:12.175Z,9.00
2019-03-22T20:28:39.827Z,8.80
2019-03-22T20:31:07.458Z,8.60
2019-03-22T20:33:35.103Z,8.30
2019-03-22T20:36:02.737Z,8.30
2019-03-22T20:38:30.390Z,8.30
2019-03-22T20:40:58.031Z,8.20
2019-03-22T20:43:25.658Z,8.00
2019-03-22T20:45:53.304Z,7.90
2019-03-22T20:48:20.938Z,8.10
2019-03-22T20:50:48.583Z,8.20
2019-03-22T20:53:16.210Z,8.10
2019-03-22T20:55:43.850Z,8.10
2019-03-22T20:58:11.486Z,7.90
2019-03-22T21:00:39.126Z,7.80
2019-03-22T21:03:06.754Z,7.70
2019-03-22T21:05:34.398Z,7.80
2019-03-22T21:08:02.028Z,7.60
2019-03-22T21:10:29.667Z,7.50
2019-03-22T21:12:57.298Z,7.30
2019-03-22T21:15:25.028Z,7.40
2019-03-22T21:17:52.646Z,7.60
2019-03-22T21:20:20.291Z,7.70
2019-03-22T21:22:47.935Z,7.70
2019-03-22T21:25:15.574Z,7.70
2019-03-22T21:27:43.194Z,7.60
2019-03-22T21:30:12.012Z,7.70
2019-03-22T21:32:45.073Z,7.60
2019-03-22T21:35:09.070Z,7.60
2019-03-22T21:37:36.709Z,7.50
2019-03-22T21:40:05.909Z,7.60
2019-03-22T21:42:33.542Z,7.50
2019-03-22T21:45:01.170Z,7.50
2019-03-22T21:47:28.882Z,7.40
2019-03-22T21:49:56.514Z,7.40
2019-03-22T21:52:24.155Z,7.30
2019-03-22T21:54:51.786Z,7.20
2019-03-22T21:57:19.418Z,7.20
2019-03-22T21:59:47.046Z,7.00
2019-03-22T22:02:14.703Z,7.00
2019-03-22T22:04:42.342Z,7.00
2019-03-22T22:07:10.002Z,6.90
2019-03-22T22:09:37.630Z,6.90
2019-03-22T22:12:06.263Z,6.90
2019-03-22T22:14:40.853Z,6.90
2019-03-22T22:17:03.307Z,6.80
2019-03-22T22:19:30.935Z,6.80
2019-03-22T22:21:58.612Z,6.70
2019-03-22T22:24:26.232Z,6.80
2019-03-22T22:26:53.928Z,6.60
2019-03-22T22:29:21.578Z,6.60
2019-03-22T22:31:49.234Z,6.50
2019-03-22T22:34:16.851Z,6.40
2019-03-22T22:36:44.494Z,6.50
2019-03-22T22:39:12.130Z,6.50
2019-03-22T22:41:39.771Z,6.40
2019-03-22T22:44:07.414Z,6.10
2019-03-22T22:46:35.046Z,6.00
2019-03-22T22:49:02.671Z,5.90
2019-03-22T22:51:30.309Z,6.10
2019-03-22T22:53:57.942Z,5.90
2019-03-22T22:56:25.589Z,5.90
2019-03-22T22:58:53.226Z,6.00
2019-03-22T23:01:20.942Z,5.90
2019-03-22T23:03:48.572Z,5.90
2019-03-22T23:06:16.210Z,5.70
2019-03-22T23:08:43.842Z,5.60
2019-03-22T23:11:11.461Z,5.80
2019-03-22T23:13:39.114Z,5.80
2019-03-22T23:16:06.745Z,5.50
2019-03-22T23:18:34.448Z,5.60
2019-03-22T23:21:02.099Z,5.70
2019-03-22T23:23:29.746Z,5.70
2019-03-22T23:25:57.371Z,5.60
2019-03-22T23:28:25.018Z,5.50
2019-03-22T23:30:52.649Z,5.50
2019-03-22T23:33:21.222Z,5.30
2019-03-22T23:35:48.846Z,5.10
2019-03-22T23:38:16.490Z,5.30
2019-03-22T23:40:44.122Z,5.30
2019-03-22T23:43:11.770Z,5.30
2019-03-22T23:45:39.437Z,5.20
2019-03-22T23:48:07.130Z,5.10
2019-03-22T23:50:34.759Z,5.00
2019-03-22T23:53:02.401Z,4.90
2019-03-22T23:55:30.027Z,4.90
2019-03-22T23:57:57.682Z,4.80
